createdAt,value
2023-03-14T00:01:27.370Z,12.10
2023-03-14T00:03:53.919Z,12.10
2023-03-14T00:06:21.292Z,12.10
2023-03-14T00:08:48.574Z,12.10
2023-03-14T00:11:24.378Z,12.10
2023-03-14T00:13:52.473Z,12.04
2023-03-14T00:16:20.509Z,12.02
2023-03-14T00:18:47.126Z,12.04
2023-03-14T00:21:14.600Z,12.00
2023-03-14T00:23:43.405Z,12.00
2023-03-14T00:26:13.846Z,12.00
2023-03-14T00:28:42.991Z,12.02
2023-03-14T00:31:14.134Z,12.00
2023-03-14T00:33:41.598Z,12.00
2023-03-14T00:36:14.707Z,12.00
2023-03-14T00:38:43.464Z,12.00
2023-03-14T00:41:14.301Z,12.00
2023-03-14T00:43:41.931Z,12.04
2023-03-14T00:46:09.178Z,12.04
2023-03-14T00:48:36.099Z,12.06
2023-03-14T00:51:08.054Z,12.06
2023-03-14T00:53:40.113Z,12.04
2023-03-14T00:56:11.206Z,12.00
2023-03-14T00:58:38.491Z,12.00
2023-03-14T01:01:19.251Z,12.00
2023-03-14T01:03:47.375Z,12.00
2023-03-14T01:06:20.280Z,12.00
2023-03-14T01:08:47.884Z,12.00
2023-03-14T01:11:19.410Z,12.00
2023-03-14T01:13:46.910Z,12.00
2023-03-14T01:16:18.033Z,11.96
2023-03-14T01:18:46.563Z,11.98
2023-03-14T01:21:26.426Z,12.00
2023-03-14T01:23:55.733Z,11.98
2023-03-14T01:26:26.465Z,11.90
2023-03-14T01:28:55.647Z,11.90
2023-03-14T01:31:22.789Z,11.90
2023-03-14T01:33:49.519Z,11.90
2023-03-14T01:36:17.096Z,11.90
2023-03-14T01:38:44.278Z,11.90
2023-03-14T01:41:23.801Z,11.90
2023-03-14T01:43:51.836Z,11.86
2023-03-14T01:46:41.375Z,11.70
2023-03-14T01:49:27.961Z,11.70
2023-03-14T01:52:11.920Z,11.70
2023-03-14T01:54:46.184Z,11.70
2023-03-14T01:57:24.302Z,11.66
2023-03-14T02:00:01.451Z,11.60
2023-03-14T02:02:28.624Z,11.60
2023-03-14T02:04:56.662Z,11.50
2023-03-14T02:07:45.421Z,11.50
2023-03-14T02:10:25.614Z,11.40
2023-03-14T02:12:54.611Z,11.40
2023-03-14T02:15:40.350Z,11.40
2023-03-14T02:18:20.541Z,11.30
2023-03-14T02:21:18.640Z,11.30
2023-03-14T02:23:59.767Z,11.20
2023-03-14T02:27:14.336Z,11.20
2023-03-14T02:29:53.621Z,11.10
2023-03-14T02:32:23.197Z,11.00
2023-03-14T02:34:57.175Z,11.00
2023-03-14T02:37:37.982Z,11.00
2023-03-14T02:40:05.906Z,11.00
2023-03-14T02:42:33.350Z,11.00
2023-03-14T02:45:09.474Z,11.00
2023-03-14T02:47:44.476Z,11.00
2023-03-14T02:50:18.559Z,10.90
2023-03-14T02:52:45.178Z,10.80
2023-03-14T02:55:11.791Z,10.80
2023-03-14T02:57:39.891Z,10.70
2023-03-14T03:00:08.149Z,10.70
2023-03-14T03:02:36.349Z,10.60
2023-03-14T03:05:03.144Z,10.60
2023-03-14T03:07:29.895Z,10.60
2023-03-14T03:09:57.119Z,10.52
2023-03-14T03:12:23.689Z,10.50
2023-03-14T03:14:50.269Z,10.50
2023-03-14T03:17:16.997Z,10.50
2023-03-14T03:19:44.656Z,10.50
2023-03-14T03:22:11.422Z,10.42
2023-03-14T03:24:40.882Z,10.40
2023-03-14T03:27:07.469Z,10.40
2023-03-14T03:29:34.064Z,10.40
2023-03-14T03:32:01.290Z,10.40
2023-03-14T03:34:29.381Z,10.40
2023-03-14T03:36:59.973Z,10.40
2023-03-14T03:39:27.594Z,10.40
2023-03-14T03:41:54.234Z,10.40
2023-03-14T03:44:20.999Z,10.34
2023-03-14T03:46:47.603Z,10.32
2023-03-14T03:49:14.190Z,10.30
2023-03-14T03:51:41.284Z,10.30
2023-03-14T03:54:07.918Z,10.20
2023-03-14T03:56:34.505Z,10.20
2023-03-14T03:59:01.365Z,10.20
2023-03-14T04:01:27.987Z,10.16
2023-03-14T04:03:55.352Z,10.10
2023-03-14T04:06:22.433Z,10.10
2023-03-14T04:08:50.431Z,10.10
2023-03-14T04:11:33.003Z,10.10
2023-03-14T04:14:19.921Z,10.10
2023-03-14T04:16:47.141Z,10.02
2023-03-14T04:19:16.137Z,10.00
2023-03-14T04:21:45.988Z,10.00
2023-03-14T04:24:13.124Z,10.00
2023-03-14T04:26:40.970Z,10.00
2023-03-14T04:29:10.984Z,9.98
2023-03-14T04:31:39.230Z,9.90
2023-03-14T04:34:05.879Z,9.90
2023-03-14T04:36:40.421Z,9.90
2023-03-14T04:39:12.388Z,9.86
2023-03-14T04:41:43.128Z,9.80
2023-03-14T04:44:10.921Z,9.80
2023-03-14T04:46:37.813Z,9.78
2023-03-14T04:49:06.683Z,9.70
2023-03-14T04:51:34.101Z,9.70
2023-03-14T04:54:00.868Z,9.70
2023-03-14T04:56:28.739Z,9.70
2023-03-14T04:58:55.732Z,9.60
2023-03-14T05:01:22.864Z,9.60
2023-03-14T05:04:18.889Z,9.60
2023-03-14T05:07:15.371Z,9.60
2023-03-14T05:09:48.920Z,9.60
2023-03-14T05:12:43.587Z,9.60
2023-03-14T05:15:27.943Z,9.60
2023-03-14T05:18:10.678Z,9.60
2023-03-14T05:20:52.889Z,9.60
2023-03-14T05:23:39.759Z,9.60
2023-03-14T05:26:25.246Z,9.60
2023-03-14T05:28:58.969Z,9.56
2023-03-14T05:31:44.223Z,9.50
2023-03-14T05:34:23.721Z,9.50
2023-03-14T05:37:08.314Z,9.50
2023-03-14T05:39:34.841Z,9.50
2023-03-14T05:42:30.732Z,9.50
2023-03-14T05:45:08.702Z,9.50
2023-03-14T05:48:05.150Z,9.50
2023-03-14T05:50:44.155Z,9.50
2023-03-14T05:53:21.246Z,9.50
2023-03-14T05:55:58.430Z,9.50
2023-03-14T05:58:57.437Z,9.50
2023-03-14T06:01:40.896Z,9.50
2023-03-14T06:04:11.439Z,9.60
2023-03-14T06:06:38.306Z,9.60
2023-03-14T06:09:05.593Z,9.60
2023-03-14T06:11:33.297Z,9.60
2023-03-14T06:14:00.754Z,9.64
2023-03-14T06:16:27.494Z,9.70
2023-03-14T06:18:55.797Z,9.70
2023-03-14T06:21:22.954Z,9.76
2023-03-14T06:23:49.767Z,9.80
2023-03-14T06:26:19.046Z,9.80
2023-03-14T06:28:45.832Z,9.80
2023-03-14T06:31:12.718Z,9.80
2023-03-14T06:33:47.128Z,9.80
2023-03-14T06:36:13.851Z,9.80
2023-03-14T06:38:41.981Z,9.88
2023-03-14T06:41:09.110Z,9.90
2023-03-14T06:43:39.723Z,10.00
2023-03-14T06:46:07.191Z,10.00
2023-03-14T06:48:34.381Z,10.10
2023-03-14T06:51:01.163Z,10.18
2023-03-14T06:53:27.879Z,10.20
2023-03-14T06:55:54.978Z,10.20
2023-03-14T06:58:22.154Z,10.30
2023-03-14T07:00:48.844Z,10.30
2023-03-14T07:03:19.575Z,10.40
2023-03-14T07:05:48.925Z,10.40
2023-03-14T07:08:16.152Z,10.40
2023-03-14T07:10:42.862Z,10.44
2023-03-14T07:13:09.798Z,10.50
2023-03-14T07:15:43.838Z,10.50
2023-03-14T07:18:10.450Z,10.50
2023-03-14T07:20:37.139Z,10.50
2023-03-14T07:23:06.656Z,10.50
2023-03-14T07:25:40.253Z,10.50
2023-03-14T07:28:07.031Z,10.50
2023-03-14T07:30:34.071Z,10.54
2023-03-14T07:33:01.714Z,10.60
2023-03-14T07:35:28.475Z,10.60
2023-03-14T07:37:55.141Z,10.68
2023-03-14T07:40:27.129Z,10.70
2023-03-14T07:42:56.220Z,10.70
2023-03-14T07:45:42.946Z,10.80
2023-03-14T07:48:10.865Z,10.80
2023-03-14T07:50:37.525Z,10.90
2023-03-14T07:53:04.168Z,10.90
2023-03-14T07:55:30.850Z,11.00
2023-03-14T07:57:57.695Z,11.00
2023-03-14T08:00:24.450Z,11.00
2023-03-14T08:02:51.117Z,11.10
2023-03-14T08:05:19.240Z,11.10
2023-03-14T08:07:45.909Z,11.20
2023-03-14T08:10:16.714Z,11.20
2023-03-14T08:12:43.339Z,11.30
2023-03-14T08:15:10.571Z,11.30
2023-03-14T08:17:38.464Z,11.40
2023-03-14T08:20:09.702Z,11.40
2023-03-14T08:22:36.296Z,11.50
2023-03-14T08:25:03.060Z,11.50
2023-03-14T08:27:29.771Z,11.60
2023-03-14T08:29:56.549Z,11.60
2023-03-14T08:32:24.625Z,11.70
2023-03-14T08:34:51.459Z,11.78
2023-03-14T08:37:26.175Z,11.80
2023-03-14T08:39:54.762Z,11.80
2023-03-14T08:42:21.463Z,11.90
2023-03-14T08:44:47.963Z,11.90
2023-03-14T08:47:14.769Z,11.90
2023-03-14T08:49:41.546Z,11.90
2023-03-14T08:52:08.209Z,12.00
2023-03-14T08:54:34.823Z,12.00
2023-03-14T08:57:01.486Z,12.00
2023-03-14T08:59:28.243Z,12.00
2023-03-14T09:01:55.768Z,12.00
2023-03-14T09:04:22.936Z,12.00
2023-03-14T09:06:49.687Z,12.00
2023-03-14T09:09:16.376Z,12.04
2023-03-14T09:11:43.025Z,12.10
2023-03-14T09:14:11.209Z,12.20
2023-03-14T09:16:38.139Z,12.30
2023-03-14T09:19:04.882Z,12.30
2023-03-14T09:21:31.477Z,12.30
2023-03-14T09:23:58.143Z,12.40
2023-03-14T09:26:24.751Z,12.50
2023-03-14T09:28:51.308Z,12.50
2023-03-14T09:31:18.874Z,12.50
2023-03-14T09:33:45.679Z,12.50
2023-03-14T09:36:12.732Z,12.50
2023-03-14T09:38:39.368Z,12.50
2023-03-14T09:41:17.410Z,12.50
2023-03-14T09:43:47.568Z,12.42
2023-03-14T09:46:15.274Z,12.48
2023-03-14T09:48:42.784Z,12.50
2023-03-14T09:51:17.344Z,12.50
2023-03-14T09:53:48.220Z,12.50
2023-03-14T09:56:20.414Z,12.54
2023-03-14T09:58:56.532Z,12.60
2023-03-14T10:01:32.344Z,12.60
2023-03-14T10:04:08.450Z,12.60
2023-03-14T10:06:36.111Z,12.60
2023-03-14T10:09:04.623Z,12.70
2023-03-14T10:11:31.231Z,12.60
2023-03-14T10:14:36.139Z,12.60
2023-03-14T10:17:09.735Z,12.70
2023-03-14T10:19:37.516Z,12.88
2023-03-14T10:22:06.448Z,13.00
2023-03-14T10:24:36.420Z,13.30
2023-03-14T10:27:19.720Z,14.10
2023-03-14T10:30:01.649Z,15.40
2023-03-14T10:32:34.600Z,16.10
2023-03-14T10:35:25.427Z,16.20
2023-03-14T10:37:58.441Z,16.10
2023-03-14T10:40:35.293Z,16.10
2023-03-14T10:43:07.487Z,16.20
2023-03-14T10:45:44.430Z,16.20
2023-03-14T10:48:25.085Z,16.00
2023-03-14T10:51:30.741Z,15.92
2023-03-14T10:54:00.135Z,15.70
2023-03-14T10:56:29.742Z,15.60
2023-03-14T10:58:59.941Z,15.40
2023-03-14T11:01:36.276Z,15.20
2023-03-14T11:04:10.433Z,15.10
2023-03-14T11:06:51.116Z,15.00
2023-03-14T11:09:44.853Z,15.00
2023-03-14T11:12:45.153Z,14.92
2023-03-14T11:15:42.355Z,14.98
2023-03-14T11:18:29.301Z,14.90
2023-03-14T11:21:20.034Z,15.00
2023-03-14T11:24:02.348Z,15.00
2023-03-14T11:27:09.708Z,14.90
2023-03-14T11:29:42.536Z,15.00
2023-03-14T11:32:52.362Z,15.10
2023-03-14T11:35:50.722Z,15.20
2023-03-14T11:38:59.764Z,15.40
2023-03-14T11:41:41.527Z,15.48
2023-03-14T11:44:23.950Z,15.50
2023-03-14T11:47:01.294Z,15.50
2023-03-14T11:49:35.294Z,15.40
2023-03-14T11:52:09.570Z,15.40
2023-03-14T11:55:03.800Z,15.20
2023-03-14T11:57:30.572Z,15.00
2023-03-14T12:00:27.092Z,14.80
2023-03-14T12:03:22.231Z,14.70
2023-03-14T12:06:14.251Z,14.68
2023-03-14T12:09:06.398Z,14.70
2023-03-14T12:12:01.105Z,14.70
2023-03-14T12:14:34.519Z,14.80
2023-03-14T12:17:21.468Z,14.82
2023-03-14T12:20:01.795Z,14.80
2023-03-14T12:22:31.445Z,14.80
2023-03-14T12:25:05.606Z,14.80
2023-03-14T12:27:57.476Z,14.70
2023-03-14T12:30:30.440Z,14.60
2023-03-14T12:33:19.081Z,14.60
2023-03-14T12:35:46.869Z,14.68
2023-03-14T12:38:39.193Z,14.70
2023-03-14T12:41:22.387Z,14.70
2023-03-14T12:43:49.187Z,14.80
2023-03-14T12:46:36.051Z,14.90
2023-03-14T12:49:02.536Z,15.00
2023-03-14T12:51:40.464Z,15.00
2023-03-14T12:54:42.161Z,15.00
2023-03-14T12:57:48.173Z,14.90
2023-03-14T13:00:36.238Z,14.80
2023-03-14T13:03:23.326Z,14.76
2023-03-14T13:06:01.194Z,14.70
2023-03-14T13:08:45.632Z,14.60
2023-03-14T13:11:21.013Z,14.50
2023-03-14T13:13:57.248Z,14.40
2023-03-14T13:16:24.602Z,14.32
2023-03-14T13:19:02.285Z,14.30
2023-03-14T13:21:35.575Z,14.40
2023-03-14T13:24:21.620Z,14.50
2023-03-14T13:26:48.297Z,14.56
2023-03-14T13:29:25.127Z,14.60
2023-03-14T13:31:55.127Z,14.50
2023-03-14T13:34:21.919Z,14.50
2023-03-14T13:36:53.127Z,14.40
2023-03-14T13:39:26.097Z,14.20
2023-03-14T13:41:54.330Z,14.10
2023-03-14T13:44:47.039Z,13.98
2023-03-14T13:47:21.223Z,13.90
2023-03-14T13:49:49.958Z,13.80
2023-03-14T13:52:30.821Z,13.70
2023-03-14T13:55:00.567Z,13.70
2023-03-14T13:57:27.778Z,13.60
2023-03-14T14:00:10.489Z,13.50
2023-03-14T14:02:39.247Z,13.40
2023-03-14T14:05:06.861Z,13.20
2023-03-14T14:07:33.635Z,13.00
2023-03-14T14:10:02.339Z,12.70
2023-03-14T14:12:38.662Z,12.50
2023-03-14T14:15:13.272Z,12.30
2023-03-14T14:17:49.240Z,12.20
2023-03-14T14:20:42.512Z,12.14
2023-03-14T14:23:16.356Z,12.00
2023-03-14T14:25:45.156Z,11.80
2023-03-14T14:28:36.579Z,11.60
2023-03-14T14:31:16.197Z,11.40
2023-03-14T14:33:53.899Z,11.28
2023-03-14T14:36:43.546Z,11.10
2023-03-14T14:39:20.307Z,10.90
2023-03-14T14:41:51.224Z,10.74
2023-03-14T14:44:29.111Z,10.60
2023-03-14T14:46:57.528Z,10.40
2023-03-14T14:49:33.871Z,10.30
2023-03-14T14:52:21.649Z,10.20
2023-03-14T14:55:00.515Z,10.10
2023-03-14T14:57:34.972Z,10.08
2023-03-14T15:00:13.124Z,10.00
2023-03-14T15:02:46.576Z,10.00
2023-03-14T15:05:18.816Z,10.00
2023-03-14T15:07:46.512Z,9.90
2023-03-14T15:10:17.673Z,9.90
2023-03-14T15:12:44.594Z,9.90
2023-03-14T15:15:12.654Z,9.90
2023-03-14T15:17:39.537Z,9.92
2023-03-14T15:20:14.209Z,10.00
2023-03-14T15:22:42.696Z,10.00
2023-03-14T15:25:18.713Z,9.90
2023-03-14T15:27:53.815Z,10.00
2023-03-14T15:30:20.797Z,9.98
2023-03-14T15:32:48.369Z,10.00
2023-03-14T15:35:17.703Z,9.92
2023-03-14T15:37:45.495Z,9.94
2023-03-14T15:40:15.357Z,9.90
2023-03-14T15:42:42.664Z,9.80
2023-03-14T15:45:10.100Z,9.70
2023-03-14T15:47:36.925Z,9.60
2023-03-14T15:50:04.959Z,9.60
2023-03-14T15:52:31.625Z,9.50
2023-03-14T15:54:58.296Z,9.50
2023-03-14T15:57:27.466Z,9.40
2023-03-14T15:59:54.131Z,9.40
2023-03-14T16:02:20.853Z,9.30
2023-03-14T16:04:48.168Z,9.30
2023-03-14T16:07:14.838Z,9.20
2023-03-14T16:09:41.432Z,9.20
2023-03-14T16:12:09.893Z,9.10
2023-03-14T16:14:36.685Z,9.00
2023-03-14T16:17:03.385Z,9.00
2023-03-14T16:19:31.973Z,8.92
2023-03-14T16:21:58.576Z,8.98
2023-03-14T16:24:25.138Z,8.98
2023-03-14T16:26:51.727Z,8.94
2023-03-14T16:29:18.317Z,8.90
2023-03-14T16:31:45.020Z,9.00
2023-03-14T16:34:13.117Z,9.00
2023-03-14T16:36:39.938Z,8.90
2023-03-14T16:39:06.467Z,8.90
2023-03-14T16:41:33.313Z,8.90
2023-03-14T16:44:01.821Z,8.90
2023-03-14T16:46:30.567Z,8.92
2023-03-14T16:48:57.440Z,8.90
2023-03-14T16:51:24.745Z,9.00
2023-03-14T16:53:51.513Z,9.00
2023-03-14T16:56:18.413Z,9.00
2023-03-14T16:58:46.019Z,9.00
2023-03-14T17:01:18.117Z,9.00
2023-03-14T17:03:48.538Z,8.90
2023-03-14T17:06:25.385Z,8.90
2023-03-14T17:08:54.600Z,8.80
2023-03-14T17:11:22.324Z,8.80
2023-03-14T17:13:48.975Z,8.80
2023-03-14T17:16:15.844Z,8.80
2023-03-14T17:18:42.501Z,8.70
2023-03-14T17:21:09.290Z,8.70
2023-03-14T17:23:37.162Z,8.62
2023-03-14T17:26:03.795Z,8.60
2023-03-14T17:28:30.442Z,8.60
2023-03-14T17:31:12.997Z,8.50
2023-03-14T17:33:39.866Z,8.40
2023-03-14T17:36:08.192Z,8.40
2023-03-14T17:38:36.441Z,8.30
2023-03-14T17:41:07.068Z,8.30
2023-03-14T17:43:33.965Z,8.20
2023-03-14T17:46:11.748Z,8.20
2023-03-14T17:48:38.720Z,8.20
2023-03-14T17:51:05.642Z,8.10
2023-03-14T17:53:32.322Z,8.10
2023-03-14T17:55:58.955Z,8.04
2023-03-14T17:58:27.310Z,8.00
2023-03-14T18:00:55.454Z,8.00
2023-03-14T18:03:22.642Z,8.00
2023-03-14T18:05:49.408Z,8.00
2023-03-14T18:08:16.060Z,7.90
2023-03-14T18:10:42.775Z,7.90
2023-03-14T18:13:10.729Z,7.90
2023-03-14T18:15:38.199Z,7.90
2023-03-14T18:18:04.863Z,7.82
2023-03-14T18:20:31.483Z,7.80
2023-03-14T18:23:00.665Z,7.80
2023-03-14T18:25:27.700Z,7.78
2023-03-14T18:27:54.413Z,7.70
2023-03-14T18:30:21.267Z,7.70
2023-03-14T18:32:47.978Z,7.70
2023-03-14T18:35:15.122Z,7.70
2023-03-14T18:37:41.776Z,7.70
2023-03-14T18:40:10.572Z,7.70
2023-03-14T18:42:37.188Z,7.70
2023-03-14T18:45:04.636Z,7.70
2023-03-14T18:47:35.664Z,7.70
2023-03-14T18:50:07.055Z,7.70
2023-03-14T18:52:34.463Z,7.70
2023-03-14T18:55:01.052Z,7.70
2023-03-14T18:57:27.706Z,7.70
2023-03-14T18:59:56.674Z,7.70
2023-03-14T19:02:25.397Z,7.70
2023-03-14T19:04:53.072Z,7.70
2023-03-14T19:07:23.538Z,7.70
2023-03-14T19:09:50.655Z,7.60
2023-03-14T19:12:18.915Z,7.60
2023-03-14T19:14:45.698Z,7.60
2023-03-14T19:17:12.249Z,7.60
2023-03-14T19:19:38.905Z,7.60
2023-03-14T19:22:05.594Z,7.60
2023-03-14T19:24:32.653Z,7.66
2023-03-14T19:26:59.380Z,7.70
2023-03-14T19:29:25.945Z,7.70
2023-03-14T19:31:54.268Z,7.70
2023-03-14T19:34:23.001Z,7.74
2023-03-14T19:36:50.572Z,7.80
2023-03-14T19:39:17.149Z,7.80
2023-03-14T19:41:43.776Z,7.80
2023-03-14T19:44:13.052Z,7.82
2023-03-14T19:46:39.652Z,7.90
2023-03-14T19:49:06.383Z,7.90
2023-03-14T19:51:35.173Z,7.90
2023-03-14T19:54:05.028Z,7.90
2023-03-14T19:56:33.463Z,7.90
2023-03-14T19:59:03.453Z,7.90
2023-03-14T20:01:31.718Z,7.90
2023-03-14T20:03:58.676Z,7.90
2023-03-14T20:06:25.223Z,7.90
2023-03-14T20:08:51.844Z,7.92
2023-03-14T20:11:18.529Z,8.00
2023-03-14T20:13:45.207Z,8.00
2023-03-14T20:16:12.281Z,8.00
2023-03-14T20:18:39.432Z,8.00
2023-03-14T20:21:08.858Z,8.00
2023-03-14T20:23:35.753Z,8.00
2023-03-14T20:26:02.677Z,8.00
2023-03-14T20:28:29.417Z,8.00
2023-03-14T20:30:56.342Z,8.00
2023-03-14T20:33:23.313Z,8.00
2023-03-14T20:35:58.812Z,8.00
2023-03-14T20:38:27.108Z,8.00
2023-03-14T20:41:00.682Z,8.00
2023-03-14T20:43:52.466Z,8.00
2023-03-14T20:46:19.763Z,8.00
2023-03-14T20:48:46.603Z,7.94
2023-03-14T20:51:14.437Z,7.90
2023-03-14T20:53:42.482Z,7.80
2023-03-14T20:56:09.164Z,7.80
2023-03-14T20:58:35.855Z,7.70
2023-03-14T21:01:02.472Z,7.60
2023-03-14T21:03:29.180Z,7.56
2023-03-14T21:05:55.932Z,7.48
2023-03-14T21:08:25.551Z,7.30
2023-03-14T21:10:55.022Z,7.20
2023-03-14T21:13:23.019Z,7.12
2023-03-14T21:15:50.085Z,7.10
2023-03-14T21:18:17.104Z,7.02
2023-03-14T21:20:44.174Z,7.00
2023-03-14T21:23:14.439Z,6.90
2023-03-14T21:25:44.537Z,6.80
2023-03-14T21:28:12.443Z,6.80
2023-03-14T21:30:39.552Z,6.70
2023-03-14T21:33:06.176Z,6.60
2023-03-14T21:35:32.917Z,6.60
2023-03-14T21:37:59.609Z,6.58
2023-03-14T21:40:26.485Z,6.54
2023-03-14T21:42:54.360Z,6.50
2023-03-14T21:45:26.400Z,6.50
2023-03-14T21:47:54.554Z,6.40
2023-03-14T21:50:26.360Z,6.40
2023-03-14T21:52:56.823Z,6.30
2023-03-14T21:55:25.726Z,6.30
2023-03-14T21:57:55.702Z,6.20
2023-03-14T22:00:24.947Z,6.10
2023-03-14T22:03:11.395Z,6.10
2023-03-14T22:05:42.044Z,6.00
2023-03-14T22:08:08.661Z,5.90
2023-03-14T22:10:35.429Z,5.90
2023-03-14T22:13:01.974Z,5.90
2023-03-14T22:15:28.642Z,5.84
2023-03-14T22:17:55.281Z,5.80
2023-03-14T22:20:21.894Z,5.72
2023-03-14T22:22:48.459Z,5.70
2023-03-14T22:25:15.260Z,5.76
2023-03-14T22:27:42.010Z,5.76
2023-03-14T22:30:10.065Z,5.72
2023-03-14T22:32:36.684Z,5.70
2023-03-14T22:35:03.753Z,5.76
2023-03-14T22:37:30.308Z,5.80
2023-03-14T22:39:56.933Z,5.80
2023-03-14T22:42:23.544Z,5.90
2023-03-14T22:44:52.718Z,5.84
2023-03-14T22:47:19.294Z,5.86
2023-03-14T22:49:45.992Z,5.80
2023-03-14T22:52:13.144Z,5.86
2023-03-14T22:54:39.795Z,5.84
2023-03-14T22:57:06.574Z,5.88
2023-03-14T22:59:33.618Z,5.90
2023-03-14T23:02:00.249Z,5.90
2023-03-14T23:04:27.264Z,5.90
2023-03-14T23:06:53.954Z,5.90
2023-03-14T23:09:21.442Z,5.90
2023-03-14T23:11:48.194Z,5.90
2023-03-14T23:14:14.959Z,5.90
2023-03-14T23:16:41.637Z,5.90
2023-03-14T23:19:10.483Z,5.82
2023-03-14T23:21:37.354Z,5.80
2023-03-14T23:24:06.010Z,5.80
2023-03-14T23:26:35.363Z,5.80
2023-03-14T23:29:05.501Z,5.76
2023-03-14T23:31:33.378Z,5.70
2023-03-14T23:33:59.909Z,5.70
2023-03-14T23:36:26.550Z,5.70
2023-03-14T23:38:53.221Z,5.70
2023-03-14T23:41:19.824Z,5.60
2023-03-14T23:43:47.944Z,5.60
2023-03-14T23:46:16.630Z,5.60
2023-03-14T23:48:46.943Z,5.58
2023-03-14T23:51:14.853Z,5.60
2023-03-14T23:53:41.952Z,5.60
2023-03-14T23:56:11.573Z,5.60
2023-03-14T23:58:38.399Z,5.60
